createdAt,value
2019-05-16T00:00:54.785Z,91.30
2019-05-16T00:03:28.059Z,91.30
2019-05-16T00:05:59.644Z,91.30
2019-05-16T00:08:30.945Z,91.30
2019-05-16T00:11:02.387Z,91.30
2019-05-16T00:13:34.003Z,91.30
2019-05-16T00:16:07.831Z,91.30
2019-05-16T00:18:38.982Z,91.30
2019-05-16T00:21:10.301Z,91.30
2019-05-16T00:23:41.588Z,91.30
2019-05-16T00:26:12.773Z,91.30
2019-05-16T00:28:43.978Z,91.30
2019-05-16T00:31:15.562Z,91.30
2019-05-16T00:33:48.737Z,91.30
2019-05-16T00:36:20.029Z,91.30
2019-05-16T00:38:51.319Z,91.30
2019-05-16T00:41:22.625Z,91.40
2019-05-16T00:43:54.396Z,91.40
2019-05-16T00:46:27.822Z,91.40
2019-05-16T00:48:59.027Z,91.40
2019-05-16T00:51:30.694Z,91.50
2019-05-16T00:54:02.200Z,91.40
2019-05-16T00:56:33.644Z,91.50
2019-05-16T00:59:07.789Z,91.50
2019-05-16T01:01:39.355Z,91.50
2019-05-16T01:04:10.712Z,91.50
2019-05-16T01:06:42.152Z,91.40
2019-05-16T01:09:14.784Z,91.40
2019-05-16T01:11:48.505Z,91.40
2019-05-16T01:14:19.440Z,91.40
2019-05-16T01:16:51.056Z,91.40
2019-05-16T01:19:22.361Z,91.40
2019-05-16T01:21:53.870Z,91.40
2019-05-16T01:24:25.270Z,91.40
2019-05-16T01:26:57.766Z,91.40
2019-05-16T01:29:29.210Z,91.40
2019-05-16T01:32:00.863Z,91.40
2019-05-16T01:34:33.424Z,91.40
2019-05-16T01:37:04.655Z,91.40
2019-05-16T01:39:38.184Z,91.40
2019-05-16T01:42:09.612Z,91.40
2019-05-16T01:44:41.130Z,91.40
2019-05-16T01:47:12.687Z,91.50
2019-05-16T01:49:44.201Z,91.40
2019-05-16T01:52:17.705Z,91.40
2019-05-16T01:54:48.805Z,91.40
2019-05-16T01:57:20.455Z,91.40
2019-05-16T01:59:51.686Z,91.40
2019-05-16T02:02:23.182Z,91.40
2019-05-16T02:04:54.769Z,91.40
2019-05-16T02:07:28.112Z,91.40
2019-05-16T02:10:00.289Z,91.40
2019-05-16T02:12:31.826Z,91.40
2019-05-16T02:15:03.993Z,91.40
2019-05-16T02:17:38.270Z,91.40
2019-05-16T02:20:08.959Z,91.40
2019-05-16T02:22:40.368Z,91.50
2019-05-16T02:25:11.799Z,91.40
2019-05-16T02:27:43.119Z,91.40
2019-05-16T02:30:14.569Z,91.40
2019-05-16T02:32:45.975Z,91.40
2019-05-16T02:35:20.687Z,91.40
2019-05-16T02:37:55.044Z,91.40
2019-05-16T02:40:24.564Z,91.40
2019-05-16T02:42:56.473Z,91.40
2019-05-16T02:45:32.139Z,91.50
2019-05-16T02:48:02.328Z,91.50
2019-05-16T02:50:33.682Z,91.50
2019-05-16T02:53:05.109Z,91.50
2019-05-16T02:55:36.744Z,91.50
2019-05-16T02:58:11.224Z,91.50
2019-05-16T03:00:42.859Z,91.50
2019-05-16T03:03:14.784Z,91.50
2019-05-16T03:05:47.023Z,91.50
2019-05-16T03:08:20.923Z,91.50
2019-05-16T03:10:53.074Z,91.50
2019-05-16T03:13:25.117Z,91.50
2019-05-16T03:16:00.637Z,91.50
2019-05-16T03:18:33.773Z,91.50
2019-05-16T03:21:05.947Z,91.50
2019-05-16T03:23:37.476Z,91.50
2019-05-16T03:26:11.813Z,91.50
2019-05-16T03:28:42.575Z,91.50
2019-05-16T03:31:15.610Z,91.50
2019-05-16T03:33:52.253Z,91.40
2019-05-16T03:36:25.258Z,91.40
2019-05-16T03:38:54.846Z,91.40
2019-05-16T03:41:26.255Z,91.40
2019-05-16T03:44:01.136Z,91.40
2019-05-16T03:46:31.099Z,91.40
2019-05-16T03:49:02.847Z,91.50
2019-05-16T03:51:34.180Z,91.50
2019-05-16T03:54:05.705Z,91.50
2019-05-16T03:56:37.065Z,91.50
2019-05-16T03:59:11.009Z,91.50
2019-05-16T04:01:41.692Z,91.50
2019-05-16T04:04:13.262Z,91.60
2019-05-16T04:06:44.775Z,91.60
2019-05-16T04:09:16.327Z,91.60
2019-05-16T04:11:50.725Z,91.60
2019-05-16T04:14:21.393Z,91.60
2019-05-16T04:16:53.966Z,91.70
2019-05-16T04:19:25.646Z,91.60
2019-05-16T04:21:56.913Z,91.60
2019-05-16T04:24:31.639Z,91.60
2019-05-16T04:27:01.854Z,91.60
2019-05-16T04:29:33.233Z,91.60
2019-05-16T04:32:05.758Z,91.60
2019-05-16T04:34:37.086Z,91.70
2019-05-16T04:37:11.498Z,91.70
2019-05-16T04:39:41.864Z,91.70
2019-05-16T04:42:13.184Z,91.70
2019-05-16T04:44:44.674Z,91.80
2019-05-16T04:47:16.020Z,91.70
2019-05-16T04:49:47.726Z,91.70
2019-05-16T04:52:21.634Z,91.70
2019-05-16T04:54:52.507Z,91.70
2019-05-16T04:57:24.047Z,91.70
2019-05-16T04:59:55.431Z,91.70
2019-05-16T05:02:26.894Z,91.70
2019-05-16T05:05:00.972Z,91.70
2019-05-16T05:07:31.600Z,91.70
2019-05-16T05:10:04.894Z,91.70
2019-05-16T05:12:36.302Z,91.60
2019-05-16T05:15:11.266Z,91.60
2019-05-16T05:17:42.886Z,91.60
2019-05-16T05:20:14.407Z,91.60
2019-05-16T05:22:47.009Z,91.60
2019-05-16T05:25:20.406Z,91.50
2019-05-16T05:27:51.437Z,91.50
2019-05-16T05:30:24.029Z,91.40
2019-05-16T05:32:55.485Z,91.40
2019-05-16T05:35:26.674Z,91.40
2019-05-16T05:38:00.346Z,91.40
2019-05-16T05:40:31.036Z,91.40
2019-05-16T05:43:02.300Z,91.40
2019-05-16T05:45:33.660Z,91.40
2019-05-16T05:48:06.241Z,91.40
2019-05-16T05:50:40.035Z,91.30
2019-05-16T05:53:11.525Z,91.30
2019-05-16T05:55:43.121Z,91.30
2019-05-16T05:58:14.789Z,91.40
2019-05-16T06:00:46.453Z,91.30
2019-05-16T06:03:21.666Z,91.30
2019-05-16T06:05:51.675Z,91.30
2019-05-16T06:08:23.276Z,91.30
2019-05-16T06:10:54.592Z,91.30
2019-05-16T06:13:26.225Z,91.30
2019-05-16T06:16:00.190Z,91.30
2019-05-16T06:18:31.922Z,91.30
2019-05-16T06:21:03.385Z,91.20
2019-05-16T06:23:35.021Z,91.20
2019-05-16T06:26:06.904Z,91.20
2019-05-16T06:28:41.060Z,91.20
2019-05-16T06:31:13.995Z,91.10
2019-05-16T06:33:45.086Z,91.00
2019-05-16T06:36:16.454Z,90.90
2019-05-16T06:38:49.791Z,90.90
2019-05-16T06:41:21.520Z,90.90
2019-05-16T06:43:53.065Z,90.80
2019-05-16T06:46:24.868Z,90.70
2019-05-16T06:48:59.594Z,90.70
2019-05-16T06:51:31.647Z,90.70
2019-05-16T06:54:03.376Z,90.60
2019-05-16T06:56:34.932Z,90.50
2019-05-16T06:59:06.505Z,90.40
2019-05-16T07:01:40.280Z,90.30
2019-05-16T07:04:11.477Z,90.00
2019-05-16T07:06:58.595Z,89.40
2019-05-16T07:09:16.300Z,89.10
2019-05-16T07:11:50.310Z,88.90
2019-05-16T07:14:23.056Z,88.80
2019-05-16T07:16:54.777Z,88.60
2019-05-16T07:19:26.416Z,88.50
2019-05-16T07:21:59.787Z,88.30
2019-05-16T07:24:31.670Z,88.20
2019-05-16T07:27:03.211Z,88.10
2019-05-16T07:29:34.779Z,88.20
2019-05-16T07:32:06.549Z,88.50
2019-05-16T07:34:40.371Z,88.80
2019-05-16T07:37:12.289Z,89.00
2019-05-16T07:39:44.145Z,89.00
2019-05-16T07:42:15.713Z,89.20
2019-05-16T07:44:50.371Z,89.10
2019-05-16T07:47:20.796Z,88.90
2019-05-16T07:49:52.189Z,88.50
2019-05-16T07:52:25.170Z,88.30
2019-05-16T07:54:57.036Z,88.20
2019-05-16T07:57:30.451Z,88.30
2019-05-16T08:00:06.569Z,87.70
2019-05-16T08:02:40.386Z,88.20
2019-05-16T08:05:11.738Z,88.40
2019-05-16T08:07:43.104Z,88.60
2019-05-16T08:10:15.129Z,88.80
2019-05-16T08:12:46.551Z,89.00
2019-05-16T08:15:20.961Z,89.10
2019-05-16T08:17:51.701Z,89.20
2019-05-16T08:20:23.258Z,88.80
2019-05-16T08:22:54.986Z,88.60
2019-05-16T08:25:26.752Z,88.40
2019-05-16T08:28:01.181Z,87.70
2019-05-16T08:30:32.203Z,87.00
2019-05-16T08:33:03.898Z,86.80
2019-05-16T08:35:35.610Z,87.00
2019-05-16T08:38:07.270Z,87.20
2019-05-16T08:41:01.257Z,87.50
2019-05-16T08:43:12.478Z,87.60
2019-05-16T08:45:43.850Z,87.70
2019-05-16T08:48:15.200Z,87.20
2019-05-16T08:50:53.752Z,86.60
2019-05-16T08:53:21.555Z,86.10
2019-05-16T08:55:53.406Z,85.60
2019-05-16T08:58:24.825Z,84.70
2019-05-16T09:00:56.355Z,83.80
2019-05-16T09:03:27.847Z,83.60
2019-05-16T09:06:02.838Z,83.30
2019-05-16T09:08:33.132Z,82.80
2019-05-16T09:11:26.999Z,82.90
2019-05-16T09:13:38.131Z,83.80
2019-05-16T09:16:09.626Z,83.90
2019-05-16T09:18:45.305Z,83.80
2019-05-16T09:21:17.979Z,83.30
2019-05-16T09:23:48.004Z,82.50
2019-05-16T09:26:20.763Z,82.70
2019-05-16T09:28:52.117Z,83.50
2019-05-16T09:31:23.304Z,84.20
2019-05-16T09:33:56.790Z,85.00
2019-05-16T09:36:28.332Z,85.10
2019-05-16T09:38:59.878Z,85.70
2019-05-16T09:41:53.417Z,86.30
2019-05-16T09:44:04.872Z,86.80
2019-05-16T09:46:37.593Z,87.30
2019-05-16T09:49:19.447Z,87.70
2019-05-16T09:51:42.649Z,88.10
2019-05-16T09:54:16.569Z,88.40
2019-05-16T09:56:48.302Z,88.90
2019-05-16T09:59:19.625Z,89.40
2019-05-16T10:01:51.157Z,89.50
2019-05-16T10:04:23.248Z,89.70
2019-05-16T10:06:57.031Z,90.00
2019-05-16T10:09:41.330Z,90.00
2019-05-16T10:12:11.497Z,90.00
2019-05-16T10:14:37.825Z,90.10
2019-05-16T10:17:08.906Z,90.30
2019-05-16T10:19:40.279Z,90.30
2019-05-16T10:22:11.813Z,90.40
2019-05-16T10:24:43.312Z,90.50
2019-05-16T10:27:17.230Z,90.50
2019-05-16T10:29:48.658Z,90.60
2019-05-16T10:32:20.375Z,90.60
2019-05-16T10:34:51.787Z,90.60
2019-05-16T10:37:23.287Z,90.50
2019-05-16T10:39:56.678Z,90.40
2019-05-16T10:42:29.169Z,90.20
2019-05-16T10:45:00.984Z,90.10
2019-05-16T10:47:32.462Z,90.20
2019-05-16T10:50:05.382Z,90.20
2019-05-16T10:52:36.989Z,90.10
2019-05-16T10:55:08.581Z,89.50
2019-05-16T10:57:40.386Z,88.90
2019-05-16T11:00:21.755Z,87.60
2019-05-16T11:02:46.775Z,87.20
2019-05-16T11:05:29.854Z,86.90
2019-05-16T11:07:53.246Z,87.30
2019-05-16T11:10:26.802Z,87.30
2019-05-16T11:12:59.779Z,87.30
2019-05-16T11:15:32.885Z,87.40
2019-05-16T11:18:06.682Z,87.50
2019-05-16T11:20:37.667Z,87.50
2019-05-16T11:23:09.385Z,87.60
2019-05-16T11:25:40.759Z,87.20
2019-05-16T11:28:12.147Z,86.90
2019-05-16T11:30:43.829Z,86.80
2019-05-16T11:33:17.360Z,86.60
2019-05-16T11:35:48.322Z,86.80
2019-05-16T11:38:19.749Z,86.70
2019-05-16T11:40:51.153Z,86.90
2019-05-16T11:43:22.742Z,86.90
2019-05-16T11:45:54.013Z,86.90
2019-05-16T11:48:29.083Z,86.80
2019-05-16T11:50:58.497Z,86.30
2019-05-16T11:53:29.819Z,86.30
2019-05-16T11:56:02.134Z,86.30
2019-05-16T11:58:34.005Z,85.90
2019-05-16T12:01:07.519Z,85.60
2019-05-16T12:03:38.883Z,85.40
2019-05-16T12:06:11.176Z,85.50
2019-05-16T12:08:42.850Z,85.40
2019-05-16T12:11:14.220Z,85.30
2019-05-16T12:13:47.572Z,85.10
2019-05-16T12:16:19.050Z,85.00
2019-05-16T12:18:50.626Z,84.90
2019-05-16T12:21:21.972Z,84.90
2019-05-16T12:23:53.376Z,85.00
2019-05-16T12:26:27.936Z,85.10
2019-05-16T12:28:58.220Z,84.70
2019-05-16T12:31:32.494Z,84.50
2019-05-16T12:34:02.808Z,84.10
2019-05-16T12:36:34.297Z,83.90
2019-05-16T12:39:07.903Z,83.60
2019-05-16T12:41:41.317Z,82.00
2019-05-16T12:44:12.924Z,82.20
2019-05-16T12:46:47.247Z,81.80
2019-05-16T12:49:17.949Z,81.40
2019-05-16T12:51:49.536Z,81.40
2019-05-16T12:54:20.942Z,81.00
2019-05-16T12:56:52.411Z,80.30
2019-05-16T12:59:23.703Z,80.40
2019-05-16T13:01:57.448Z,80.10
2019-05-16T13:04:28.298Z,79.80
2019-05-16T13:07:00.696Z,79.70
2019-05-16T13:09:32.361Z,79.70
2019-05-16T13:12:06.722Z,80.00
2019-05-16T13:14:40.313Z,80.10
2019-05-16T13:17:10.641Z,80.00
2019-05-16T13:19:44.235Z,80.90
2019-05-16T13:22:16.649Z,80.50
2019-05-16T13:24:48.126Z,80.50
2019-05-16T13:27:22.879Z,80.00
2019-05-16T13:29:52.737Z,80.40
2019-05-16T13:32:26.910Z,80.70
2019-05-16T13:34:59.106Z,80.70
2019-05-16T13:37:30.866Z,80.90
2019-05-16T13:40:07.607Z,80.50
2019-05-16T13:42:37.990Z,80.50
2019-05-16T13:45:09.335Z,80.40
2019-05-16T13:47:40.910Z,80.40
2019-05-16T13:50:12.825Z,80.70
2019-05-16T13:52:44.389Z,80.80
2019-05-16T13:55:16.760Z,81.00
2019-05-16T13:57:48.443Z,81.10
2019-05-16T14:00:20.653Z,81.10
2019-05-16T14:02:52.052Z,81.30
2019-05-16T14:05:23.585Z,81.50
2019-05-16T14:07:57.244Z,81.50
2019-05-16T14:10:29.946Z,81.40
2019-05-16T14:13:01.476Z,81.10
2019-05-16T14:15:32.997Z,81.00
2019-05-16T14:18:07.396Z,80.60
2019-05-16T14:20:38.036Z,80.40
2019-05-16T14:23:09.838Z,79.80
2019-05-16T14:25:41.702Z,79.70
2019-05-16T14:28:13.240Z,79.10
2019-05-16T14:30:46.803Z,78.60
2019-05-16T14:33:18.072Z,78.40
2019-05-16T14:35:49.447Z,78.30
2019-05-16T14:38:21.116Z,77.40
2019-05-16T14:40:52.987Z,77.00
2019-05-16T14:43:24.231Z,76.70
2019-05-16T14:45:57.258Z,76.60
2019-05-16T14:48:30.244Z,76.10
2019-05-16T14:51:01.586Z,76.00
2019-05-16T14:53:32.974Z,76.00
2019-05-16T14:56:06.812Z,75.80
2019-05-16T14:58:37.995Z,75.00
2019-05-16T15:01:09.525Z,75.00
2019-05-16T15:03:40.858Z,74.40
2019-05-16T15:06:12.181Z,73.70
2019-05-16T15:08:43.682Z,73.80
2019-05-16T15:11:17.840Z,73.70
2019-05-16T15:13:49.118Z,73.60
2019-05-16T15:16:20.523Z,73.70
2019-05-16T15:18:52.138Z,73.80
2019-05-16T15:21:23.548Z,74.10
2019-05-16T15:23:59.331Z,74.20
2019-05-16T15:26:29.543Z,74.50
2019-05-16T15:29:01.109Z,75.20
2019-05-16T15:31:32.407Z,75.60
2019-05-16T15:34:03.601Z,74.90
2019-05-16T15:36:37.131Z,74.70
2019-05-16T15:39:08.190Z,74.80
2019-05-16T15:41:39.723Z,74.60
2019-05-16T15:44:11.208Z,74.70
2019-05-16T15:46:42.662Z,74.70
2019-05-16T15:49:14.193Z,74.60
2019-05-16T15:51:46.509Z,74.40
2019-05-16T15:54:21.356Z,74.10
2019-05-16T15:56:52.842Z,74.00
2019-05-16T15:59:27.017Z,74.20
2019-05-16T16:01:57.691Z,73.90
2019-05-16T16:04:29.028Z,73.80
2019-05-16T16:07:00.484Z,73.30
2019-05-16T16:09:31.861Z,72.90
2019-05-16T16:12:03.273Z,72.50
2019-05-16T16:14:36.793Z,72.20
2019-05-16T16:17:08.249Z,72.10
2019-05-16T16:19:39.546Z,72.00
2019-05-16T16:22:11.286Z,72.10
2019-05-16T16:24:42.668Z,72.20
2019-05-16T16:27:16.588Z,72.40
2019-05-16T16:29:48.090Z,72.60
2019-05-16T16:32:20.157Z,72.60
2019-05-16T16:34:51.465Z,73.00
2019-05-16T16:37:22.910Z,73.40
2019-05-16T16:39:54.182Z,73.60
2019-05-16T16:42:27.225Z,73.60
2019-05-16T16:44:59.213Z,73.80
2019-05-16T16:47:30.428Z,74.30
2019-05-16T16:50:07.847Z,74.10
2019-05-16T16:52:38.854Z,74.30
2019-05-16T16:55:11.551Z,75.00
2019-05-16T16:57:42.797Z,75.40
2019-05-16T17:00:17.526Z,75.80
2019-05-16T17:03:01.664Z,76.30
2019-05-16T17:05:22.129Z,76.50
2019-05-16T17:07:53.370Z,76.80
2019-05-16T17:10:27.331Z,77.70
2019-05-16T17:12:58.133Z,77.50
2019-05-16T17:15:29.578Z,77.90
2019-05-16T17:18:01.158Z,78.10
2019-05-16T17:20:32.969Z,78.70
2019-05-16T17:23:06.593Z,78.90
2019-05-16T17:25:37.487Z,79.20
2019-05-16T17:28:08.880Z,79.40
2019-05-16T17:30:40.293Z,79.30
2019-05-16T17:33:11.748Z,78.70
2019-05-16T17:35:43.029Z,78.40
2019-05-16T17:38:14.332Z,78.60
2019-05-16T17:40:46.458Z,78.70
2019-05-16T17:43:18.415Z,78.50
2019-05-16T17:45:49.745Z,78.40
2019-05-16T17:48:21.066Z,78.30
2019-05-16T17:50:52.834Z,78.30
2019-05-16T17:53:26.537Z,78.50
2019-05-16T17:55:57.814Z,78.70
2019-05-16T17:58:29.534Z,78.90
2019-05-16T18:01:00.945Z,79.20
2019-05-16T18:03:32.452Z,79.20
2019-05-16T18:06:06.176Z,79.40
2019-05-16T18:08:37.750Z,79.00
2019-05-16T18:11:09.286Z,79.70
2019-05-16T18:13:40.670Z,79.80
2019-05-16T18:16:11.962Z,79.90
2019-05-16T18:18:43.342Z,80.10
2019-05-16T18:21:16.864Z,80.40
2019-05-16T18:23:49.123Z,80.40
2019-05-16T18:26:20.485Z,80.50
2019-05-16T18:28:52.017Z,80.40
2019-05-16T18:31:23.274Z,80.50
2019-05-16T18:33:56.591Z,80.60
2019-05-16T18:36:27.901Z,80.80
2019-05-16T18:38:59.507Z,81.30
2019-05-16T18:41:31.165Z,81.70
2019-05-16T18:44:02.561Z,82.20
2019-05-16T18:46:36.265Z,82.90
2019-05-16T18:49:07.299Z,83.50
2019-05-16T18:51:38.961Z,84.70
2019-05-16T18:54:10.136Z,84.70
2019-05-16T18:56:41.422Z,85.30
2019-05-16T18:59:13.861Z,85.70
2019-05-16T19:01:46.881Z,86.10
2019-05-16T19:04:19.497Z,86.30
2019-05-16T19:06:50.980Z,86.50
2019-05-16T19:09:22.659Z,86.80
2019-05-16T19:11:56.596Z,87.10
2019-05-16T19:14:27.837Z,87.30
2019-05-16T19:16:59.116Z,87.60
2019-05-16T19:19:30.617Z,87.80
2019-05-16T19:22:02.398Z,88.10
2019-05-16T19:24:33.717Z,88.30
2019-05-16T19:27:06.754Z,88.40
2019-05-16T19:29:38.228Z,88.50
2019-05-16T19:32:09.602Z,88.80
2019-05-16T19:34:41.008Z,89.00
2019-05-16T19:37:12.772Z,89.10
2019-05-16T19:39:46.192Z,89.30
2019-05-16T19:42:17.411Z,89.40
2019-05-16T19:44:48.736Z,89.50
2019-05-16T19:47:33.903Z,89.60
2019-05-16T19:49:54.004Z,89.70
2019-05-16T19:52:26.993Z,89.70
2019-05-16T19:55:00.343Z,89.90
2019-05-16T19:57:32.388Z,90.00
2019-05-16T20:00:06.181Z,90.00
2019-05-16T20:02:37.807Z,90.00
2019-05-16T20:05:10.316Z,90.10
2019-05-16T20:07:41.744Z,90.10
2019-05-16T20:10:13.441Z,90.20
2019-05-16T20:12:46.292Z,90.20
2019-05-16T20:15:18.060Z,90.30
2019-05-16T20:17:56.174Z,90.30
2019-05-16T20:20:23.271Z,90.40
2019-05-16T20:22:56.628Z,90.40
2019-05-16T20:25:28.311Z,90.40
2019-05-16T20:27:59.491Z,90.50
2019-05-16T20:30:30.896Z,90.50
2019-05-16T20:33:02.171Z,90.60
2019-05-16T20:35:33.598Z,90.60
2019-05-16T20:38:06.861Z,90.60
2019-05-16T20:40:38.266Z,90.70
2019-05-16T20:43:09.600Z,90.70
2019-05-16T20:45:40.948Z,90.70
2019-05-16T20:48:15.303Z,90.70
2019-05-16T20:50:49.110Z,90.70
2019-05-16T20:53:20.006Z,90.80
2019-05-16T20:55:51.513Z,90.80
2019-05-16T20:58:23.088Z,90.80
2019-05-16T21:00:54.433Z,90.80
2019-05-16T21:03:27.026Z,91.00
2019-05-16T21:05:58.711Z,90.80
2019-05-16T21:08:30.249Z,90.80
2019-05-16T21:11:01.553Z,90.80
2019-05-16T21:13:32.969Z,90.80
2019-05-16T21:16:04.369Z,90.80
2019-05-16T21:18:37.756Z,90.90
2019-05-16T21:21:09.058Z,90.90
2019-05-16T21:23:40.542Z,90.90
2019-05-16T21:26:11.925Z,90.90
2019-05-16T21:28:43.208Z,90.90
2019-05-16T21:31:16.471Z,90.90
2019-05-16T21:33:48.076Z,90.90
2019-05-16T21:36:19.574Z,90.90
2019-05-16T21:38:51.136Z,90.90
2019-05-16T21:41:22.588Z,90.90
2019-05-16T21:43:56.138Z,91.20
2019-05-16T21:46:27.275Z,91.00
2019-05-16T21:48:58.913Z,90.90
2019-05-16T21:51:30.589Z,90.90
2019-05-16T21:54:02.257Z,90.90
2019-05-16T21:56:37.152Z,91.00
2019-05-16T21:59:08.824Z,90.90
2019-05-16T22:01:40.390Z,90.90
2019-05-16T22:04:11.815Z,90.90
2019-05-16T22:06:43.494Z,90.90
2019-05-16T22:09:14.965Z,90.90
2019-05-16T22:11:46.833Z,90.90
2019-05-16T22:14:22.037Z,90.90
2019-05-16T22:16:53.604Z,90.90
2019-05-16T22:19:27.063Z,90.90
2019-05-16T22:21:58.957Z,90.90
2019-05-16T22:24:30.412Z,90.90
2019-05-16T22:27:02.018Z,90.90
2019-05-16T22:29:33.592Z,90.90
2019-05-16T22:32:07.072Z,91.00
2019-05-16T22:34:38.229Z,91.00
2019-05-16T22:37:09.741Z,91.10
2019-05-16T22:39:41.013Z,91.10
2019-05-16T22:42:12.704Z,91.20
2019-05-16T22:44:46.517Z,91.20
2019-05-16T22:47:17.389Z,91.20
2019-05-16T22:49:48.645Z,91.20
2019-05-16T22:52:20.705Z,91.30
2019-05-16T22:54:52.259Z,91.30
2019-05-16T22:57:23.921Z,91.30
2019-05-16T22:59:56.908Z,91.30
2019-05-16T23:02:28.673Z,91.30
2019-05-16T23:05:00.156Z,91.30
2019-05-16T23:07:31.637Z,91.30
2019-05-16T23:10:04.306Z,91.30
2019-05-16T23:12:37.102Z,91.30
2019-05-16T23:15:09.105Z,91.30
2019-05-16T23:17:40.698Z,91.20
2019-05-16T23:20:12.705Z,91.30
2019-05-16T23:22:44.105Z,91.20
2019-05-16T23:25:17.099Z,91.20
2019-05-16T23:27:48.796Z,91.20
2019-05-16T23:30:20.281Z,91.10
2019-05-16T23:32:51.833Z,91.20
2019-05-16T23:35:23.229Z,91.10
2019-05-16T23:37:56.809Z,91.10
2019-05-16T23:40:28.011Z,91.10
2019-05-16T23:42:59.606Z,91.10
2019-05-16T23:45:31.059Z,91.10
2019-05-16T23:48:02.724Z,91.10
2019-05-16T23:50:36.329Z,91.10
2019-05-16T23:53:07.656Z,91.20
2019-05-16T23:55:39.176Z,91.20
2019-05-16T23:58:10.949Z,91.20
